sensor_id;sensor_type;location;lat;lon;timestamp;temperature;humidity
30999;DHT22;20549;50.042;8.968;2023-04-24T00:01:29;14.60;76.80
30999;DHT22;20549;50.042;8.968;2023-04-24T00:03:56;14.60;76.70
30999;DHT22;20549;50.042;8.968;2023-04-24T00:06:22;14.70;76.90
30999;DHT22;20549;50.042;8.968;2023-04-24T00:08:49;14.70;76.90
30999;DHT22;20549;50.042;8.968;2023-04-24T00:11:16;14.70;76.90
30999;DHT22;20549;50.042;8.968;2023-04-24T00:13:42;14.70;76.80
30999;DHT22;20549;50.042;8.968;2023-04-24T00:16:09;14.70;76.60
30999;DHT22;20549;50.042;8.968;2023-04-24T00:18:35;14.80;76.70
30999;DHT22;20549;50.042;8.968;2023-04-24T00:21:02;14.80;76.70
30999;DHT22;20549;50.042;8.968;2023-04-24T00:23:29;14.80;76.70
30999;DHT22;20549;50.042;8.968;2023-04-24T00:25:55;14.80;76.60
30999;DHT22;20549;50.042;8.968;2023-04-24T00:28:22;14.80;76.60
30999;DHT22;20549;50.042;8.968;2023-04-24T00:30:48;14.80;76.70
30999;DHT22;20549;50.042;8.968;2023-04-24T00:33:15;14.80;76.90
30999;DHT22;20549;50.042;8.968;2023-04-24T00:35:41;14.80;76.70
30999;DHT22;20549;50.042;8.968;2023-04-24T00:38:08;14.80;76.70
30999;DHT22;20549;50.042;8.968;2023-04-24T00:40:35;14.80;76.70
30999;DHT22;20549;50.042;8.968;2023-04-24T00:43:01;14.80;76.40
30999;DHT22;20549;50.042;8.968;2023-04-24T00:45:28;14.80;76.30
30999;DHT22;20549;50.042;8.968;2023-04-24T00:47:54;14.80;77.10
30999;DHT22;20549;50.042;8.968;2023-04-24T00:50:21;14.80;76.20
30999;DHT22;20549;50.042;8.968;2023-04-24T00:52:48;14.80;76.20
30999;DHT22;20549;50.042;8.968;2023-04-24T00:55:14;14.80;76.10
30999;DHT22;20549;50.042;8.968;2023-04-24T00:57:41;14.80;76.20
30999;DHT22;20549;50.042;8.968;2023-04-24T01:00:07;14.80;76.20
30999;DHT22;20549;50.042;8.968;2023-04-24T01:02:34;14.80;76.20
30999;DHT22;20549;50.042;8.968;2023-04-24T01:05:01;14.80;76.30
30999;DHT22;20549;50.042;8.968;2023-04-24T01:07:27;14.80;76.30
30999;DHT22;20549;50.042;8.968;2023-04-24T01:09:54;14.80;76.40
30999;DHT22;20549;50.042;8.968;2023-04-24T01:12:20;14.80;76.30
30999;DHT22;20549;50.042;8.968;2023-04-24T01:14:47;14.80;76.50
30999;DHT22;20549;50.042;8.968;2023-04-24T01:17:14;14.80;76.30
30999;DHT22;20549;50.042;8.968;2023-04-24T01:19:40;14.90;76.20
30999;DHT22;20549;50.042;8.968;2023-04-24T01:22:13;14.90;76.20
30999;DHT22;20549;50.042;8.968;2023-04-24T01:24:39;14.90;76.20
30999;DHT22;20549;50.042;8.968;2023-04-24T01:27:06;14.90;76.00
30999;DHT22;20549;50.042;8.968;2023-04-24T01:29:32;14.90;76.00
30999;DHT22;20549;50.042;8.968;2023-04-24T01:31:59;14.90;76.00
30999;DHT22;20549;50.042;8.968;2023-04-24T01:34:26;14.90;75.90
30999;DHT22;20549;50.042;8.968;2023-04-24T01:36:52;14.90;76.00
30999;DHT22;20549;50.042;8.968;2023-04-24T01:39:19;14.90;75.90
30999;DHT22;20549;50.042;8.968;2023-04-24T01:41:45;15.00;75.90
30999;DHT22;20549;50.042;8.968;2023-04-24T01:44:12;15.00;75.90
30999;DHT22;20549;50.042;8.968;2023-04-24T01:46:39;15.00;76.00
30999;DHT22;20549;50.042;8.968;2023-04-24T01:49:05;15.00;75.90
30999;DHT22;20549;50.042;8.968;2023-04-24T01:51:32;15.00;76.00
30999;DHT22;20549;50.042;8.968;2023-04-24T01:53:58;15.00;75.80
30999;DHT22;20549;50.042;8.968;2023-04-24T01:56:25;15.00;75.80
30999;DHT22;20549;50.042;8.968;2023-04-24T01:58:52;15.00;75.70
30999;DHT22;20549;50.042;8.968;2023-04-24T02:01:21;15.00;75.70
30999;DHT22;20549;50.042;8.968;2023-04-24T02:03:45;15.00;75.50
30999;DHT22;20549;50.042;8.968;2023-04-24T02:06:11;15.00;75.60
30999;DHT22;20549;50.042;8.968;2023-04-24T02:08:38;15.00;75.60
30999;DHT22;20549;50.042;8.968;2023-04-24T02:11:04;15.00;75.60
30999;DHT22;20549;50.042;8.968;2023-04-24T02:13:31;15.00;75.60
30999;DHT22;20549;50.042;8.968;2023-04-24T02:16:01;15.00;76.30
30999;DHT22;20549;50.042;8.968;2023-04-24T02:18:27;15.00;75.60
30999;DHT22;20549;50.042;8.968;2023-04-24T02:20:54;15.00;75.60
30999;DHT22;20549;50.042;8.968;2023-04-24T02:23:20;15.00;75.70
30999;DHT22;20549;50.042;8.968;2023-04-24T02:25:47;15.00;75.70
30999;DHT22;20549;50.042;8.968;2023-04-24T02:28:14;15.00;75.80
30999;DHT22;20549;50.042;8.968;2023-04-24T02:30:40;14.90;75.90
30999;DHT22;20549;50.042;8.968;2023-04-24T02:33:07;14.90;75.80
30999;DHT22;20549;50.042;8.968;2023-04-24T02:35:33;14.90;75.80
30999;DHT22;20549;50.042;8.968;2023-04-24T02:38:00;14.90;76.00
30999;DHT22;20549;50.042;8.968;2023-04-24T02:40:27;14.90;76.20
30999;DHT22;20549;50.042;8.968;2023-04-24T02:42:53;14.90;76.20
30999;DHT22;20549;50.042;8.968;2023-04-24T02:45:20;14.90;76.20
30999;DHT22;20549;50.042;8.968;2023-04-24T02:47:46;14.90;76.30
30999;DHT22;20549;50.042;8.968;2023-04-24T02:50:13;14.90;76.40
30999;DHT22;20549;50.042;8.968;2023-04-24T02:52:39;14.90;76.50
30999;DHT22;20549;50.042;8.968;2023-04-24T02:55:06;14.90;76.40
30999;DHT22;20549;50.042;8.968;2023-04-24T02:57:33;14.90;76.20
30999;DHT22;20549;50.042;8.968;2023-04-24T02:59:59;14.90;76.90
30999;DHT22;20549;50.042;8.968;2023-04-24T03:02:26;14.90;76.20
30999;DHT22;20549;50.042;8.968;2023-04-24T03:04:52;14.90;77.00
30999;DHT22;20549;50.042;8.968;2023-04-24T03:07:19;14.90;76.20
30999;DHT22;20549;50.042;8.968;2023-04-24T03:09:46;14.90;76.20
30999;DHT22;20549;50.042;8.968;2023-04-24T03:12:12;14.90;75.90
30999;DHT22;20549;50.042;8.968;2023-04-24T03:14:39;14.90;76.00
30999;DHT22;20549;50.042;8.968;2023-04-24T03:17:05;14.90;76.00
30999;DHT22;20549;50.042;8.968;2023-04-24T03:19:32;14.90;76.10
30999;DHT22;20549;50.042;8.968;2023-04-24T03:21:58;14.90;76.10
30999;DHT22;20549;50.042;8.968;2023-04-24T03:24:25;14.80;76.10
30999;DHT22;20549;50.042;8.968;2023-04-24T03:26:52;14.80;76.40
30999;DHT22;20549;50.042;8.968;2023-04-24T03:29:18;14.80;76.30
30999;DHT22;20549;50.042;8.968;2023-04-24T03:31:45;14.80;76.40
30999;DHT22;20549;50.042;8.968;2023-04-24T03:34:11;14.80;76.30
30999;DHT22;20549;50.042;8.968;2023-04-24T03:36:38;14.80;76.60
30999;DHT22;20549;50.042;8.968;2023-04-24T03:39:05;14.80;76.40
30999;DHT22;20549;50.042;8.968;2023-04-24T03:41:31;14.80;76.40
30999;DHT22;20549;50.042;8.968;2023-04-24T03:43:58;14.80;76.40
30999;DHT22;20549;50.042;8.968;2023-04-24T03:46:24;14.80;76.70
30999;DHT22;20549;50.042;8.968;2023-04-24T03:48:51;14.80;76.60
30999;DHT22;20549;50.042;8.968;2023-04-24T03:51:18;14.80;76.80
30999;DHT22;20549;50.042;8.968;2023-04-24T03:53:44;14.80;77.00
30999;DHT22;20549;50.042;8.968;2023-04-24T03:56:11;14.80;77.10
30999;DHT22;20549;50.042;8.968;2023-04-24T03:58:37;14.80;77.50
30999;DHT22;20549;50.042;8.968;2023-04-24T04:01:04;14.80;77.60
30999;DHT22;20549;50.042;8.968;2023-04-24T04:03:30;14.70;77.70
30999;DHT22;20549;50.042;8.968;2023-04-24T04:05:57;14.70;78.00
30999;DHT22;20549;50.042;8.968;2023-04-24T04:08:24;14.70;77.80
30999;DHT22;20549;50.042;8.968;2023-04-24T04:10:50;14.60;77.80
30999;DHT22;20549;50.042;8.968;2023-04-24T04:13:17;14.60;77.80
30999;DHT22;20549;50.042;8.968;2023-04-24T04:15:43;14.50;78.00
30999;DHT22;20549;50.042;8.968;2023-04-24T04:18:10;14.50;78.20
30999;DHT22;20549;50.042;8.968;2023-04-24T04:20:37;14.50;78.20
30999;DHT22;20549;50.042;8.968;2023-04-24T04:23:03;14.40;78.30
30999;DHT22;20549;50.042;8.968;2023-04-24T04:25:30;14.40;78.30
30999;DHT22;20549;50.042;8.968;2023-04-24T04:27:56;14.30;78.80
30999;DHT22;20549;50.042;8.968;2023-04-24T04:30:23;14.30;78.60
30999;DHT22;20549;50.042;8.968;2023-04-24T04:32:50;14.20;78.80
30999;DHT22;20549;50.042;8.968;2023-04-24T04:35:16;14.20;79.10
30999;DHT22;20549;50.042;8.968;2023-04-24T04:37:43;14.20;79.30
30999;DHT22;20549;50.042;8.968;2023-04-24T04:40:09;14.10;79.10
30999;DHT22;20549;50.042;8.968;2023-04-24T04:42:36;14.10;79.20
30999;DHT22;20549;50.042;8.968;2023-04-24T04:45:02;14.10;79.40
30999;DHT22;20549;50.042;8.968;2023-04-24T04:47:29;14.00;79.60
30999;DHT22;20549;50.042;8.968;2023-04-24T04:49:56;14.00;79.50
30999;DHT22;20549;50.042;8.968;2023-04-24T04:52:22;13.90;79.90
30999;DHT22;20549;50.042;8.968;2023-04-24T04:54:49;13.90;80.00
30999;DHT22;20549;50.042;8.968;2023-04-24T04:57:15;13.80;80.00
30999;DHT22;20549;50.042;8.968;2023-04-24T04:59:42;13.70;80.20
30999;DHT22;20549;50.042;8.968;2023-04-24T05:02:09;13.70;80.30
30999;DHT22;20549;50.042;8.968;2023-04-24T05:04:35;13.70;80.50
30999;DHT22;20549;50.042;8.968;2023-04-24T05:07:02;13.70;81.20
30999;DHT22;20549;50.042;8.968;2023-04-24T05:09:28;13.70;81.70
30999;DHT22;20549;50.042;8.968;2023-04-24T05:11:55;13.70;82.00
30999;DHT22;20549;50.042;8.968;2023-04-24T05:14:22;13.70;82.40
30999;DHT22;20549;50.042;8.968;2023-04-24T05:16:48;13.80;83.00
30999;DHT22;20549;50.042;8.968;2023-04-24T05:19:15;13.90;83.30
30999;DHT22;20549;50.042;8.968;2023-04-24T05:21:41;14.20;84.90
30999;DHT22;20549;50.042;8.968;2023-04-24T05:24:08;14.40;85.70
30999;DHT22;20549;50.042;8.968;2023-04-24T05:26:34;14.80;86.00
30999;DHT22;20549;50.042;8.968;2023-04-24T05:29:01;15.10;86.80
30999;DHT22;20549;50.042;8.968;2023-04-24T05:31:28;15.60;86.20
30999;DHT22;20549;50.042;8.968;2023-04-24T05:33:54;16.10;85.20
30999;DHT22;20549;50.042;8.968;2023-04-24T05:36:21;16.70;84.00
30999;DHT22;20549;50.042;8.968;2023-04-24T05:38:47;17.20;82.60
30999;DHT22;20549;50.042;8.968;2023-04-24T05:41:14;17.70;81.10
30999;DHT22;20549;50.042;8.968;2023-04-24T05:43:41;18.30;79.80
30999;DHT22;20549;50.042;8.968;2023-04-24T05:46:07;18.80;78.10
30999;DHT22;20549;50.042;8.968;2023-04-24T05:48:34;19.30;75.50
30999;DHT22;20549;50.042;8.968;2023-04-24T05:51:00;19.80;74.20
30999;DHT22;20549;50.042;8.968;2023-04-24T05:53:27;20.20;72.60
30999;DHT22;20549;50.042;8.968;2023-04-24T05:55:54;20.60;72.10
30999;DHT22;20549;50.042;8.968;2023-04-24T05:58:20;21.10;71.20
30999;DHT22;20549;50.042;8.968;2023-04-24T06:00:47;21.50;69.90
30999;DHT22;20549;50.042;8.968;2023-04-24T06:03:13;22.00;68.80
30999;DHT22;20549;50.042;8.968;2023-04-24T06:05:40;22.40;67.80
30999;DHT22;20549;50.042;8.968;2023-04-24T06:08:06;22.90;66.70
30999;DHT22;20549;50.042;8.968;2023-04-24T06:10:33;23.40;66.00
30999;DHT22;20549;50.042;8.968;2023-04-24T06:13:00;23.90;64.80
30999;DHT22;20549;50.042;8.968;2023-04-24T06:15:29;24.30;64.10
30999;DHT22;20549;50.042;8.968;2023-04-24T06:17:56;24.80;62.30
30999;DHT22;20549;50.042;8.968;2023-04-24T06:20:23;25.20;60.10
30999;DHT22;20549;50.042;8.968;2023-04-24T06:22:49;25.50;58.90
30999;DHT22;20549;50.042;8.968;2023-04-24T06:25:16;25.80;57.10
30999;DHT22;20549;50.042;8.968;2023-04-24T06:27:42;26.00;56.50
30999;DHT22;20549;50.042;8.968;2023-04-24T06:30:09;26.20;55.40
30999;DHT22;20549;50.042;8.968;2023-04-24T06:32:35;26.40;56.00
30999;DHT22;20549;50.042;8.968;2023-04-24T06:35:02;26.70;55.20
30999;DHT22;20549;50.042;8.968;2023-04-24T06:37:28;27.00;54.80
30999;DHT22;20549;50.042;8.968;2023-04-24T06:39:55;27.20;53.40
30999;DHT22;20549;50.042;8.968;2023-04-24T06:42:22;27.40;52.80
30999;DHT22;20549;50.042;8.968;2023-04-24T06:44:48;27.50;52.30
30999;DHT22;20549;50.042;8.968;2023-04-24T06:47:15;27.50;52.00
30999;DHT22;20549;50.042;8.968;2023-04-24T06:49:41;27.40;51.40
30999;DHT22;20549;50.042;8.968;2023-04-24T06:52:08;27.40;50.60
30999;DHT22;20549;50.042;8.968;2023-04-24T06:54:35;27.20;50.50
30999;DHT22;20549;50.042;8.968;2023-04-24T06:57:01;27.10;50.50
30999;DHT22;20549;50.042;8.968;2023-04-24T06:59:28;27.10;50.70
30999;DHT22;20549;50.042;8.968;2023-04-24T07:01:55;27.20;50.80
30999;DHT22;20549;50.042;8.968;2023-04-24T07:04:21;27.30;51.10
30999;DHT22;20549;50.042;8.968;2023-04-24T07:06:48;27.60;50.60
30999;DHT22;20549;50.042;8.968;2023-04-24T07:09:14;27.90;50.00
30999;DHT22;20549;50.042;8.968;2023-04-24T07:11:41;28.10;49.80
30999;DHT22;20549;50.042;8.968;2023-04-24T07:14:07;28.20;49.40
30999;DHT22;20549;50.042;8.968;2023-04-24T07:16:34;28.30;48.40
30999;DHT22;20549;50.042;8.968;2023-04-24T07:19:00;28.20;47.80
30999;DHT22;20549;50.042;8.968;2023-04-24T07:21:27;27.90;46.20
30999;DHT22;20549;50.042;8.968;2023-04-24T07:23:54;27.50;46.00
30999;DHT22;20549;50.042;8.968;2023-04-24T07:26:20;27.10;46.20
30999;DHT22;20549;50.042;8.968;2023-04-24T07:28:47;26.80;46.50
30999;DHT22;20549;50.042;8.968;2023-04-24T07:31:13;26.60;47.70
30999;DHT22;20549;50.042;8.968;2023-04-24T07:33:40;26.60;47.60
30999;DHT22;20549;50.042;8.968;2023-04-24T07:36:07;26.80;48.40
30999;DHT22;20549;50.042;8.968;2023-04-24T07:38:33;27.10;49.00
30999;DHT22;20549;50.042;8.968;2023-04-24T07:41:00;27.50;48.80
30999;DHT22;20549;50.042;8.968;2023-04-24T07:43:26;27.80;48.80
30999;DHT22;20549;50.042;8.968;2023-04-24T07:45:53;28.30;41.20
30999;DHT22;20549;50.042;8.968;2023-04-24T07:48:20;28.50;45.00
30999;DHT22;20549;50.042;8.968;2023-04-24T07:50:46;28.80;45.60
30999;DHT22;20549;50.042;8.968;2023-04-24T07:53:13;29.00;45.60
30999;DHT22;20549;50.042;8.968;2023-04-24T07:55:39;29.20;45.60
30999;DHT22;20549;50.042;8.968;2023-04-24T07:58:06;29.40;45.90
30999;DHT22;20549;50.042;8.968;2023-04-24T08:00:33;29.70;45.60
30999;DHT22;20549;50.042;8.968;2023-04-24T08:02:59;29.80;44.70
30999;DHT22;20549;50.042;8.968;2023-04-24T08:05:26;29.80;43.70
30999;DHT22;20549;50.042;8.968;2023-04-24T08:07:52;29.70;43.40
30999;DHT22;20549;50.042;8.968;2023-04-24T08:10:19;29.50;43.70
30999;DHT22;20549;50.042;8.968;2023-04-24T08:12:45;29.50;44.00
30999;DHT22;20549;50.042;8.968;2023-04-24T08:15:12;29.70;44.30
30999;DHT22;20549;50.042;8.968;2023-04-24T08:17:39;29.90;44.50
30999;DHT22;20549;50.042;8.968;2023-04-24T08:20:06;30.20;44.20
30999;DHT22;20549;50.042;8.968;2023-04-24T08:22:32;30.40;44.00
30999;DHT22;20549;50.042;8.968;2023-04-24T08:24:59;30.60;43.70
30999;DHT22;20549;50.042;8.968;2023-04-24T08:27:25;30.60;42.30
30999;DHT22;20549;50.042;8.968;2023-04-24T08:29:55;30.50;41.80
30999;DHT22;20549;50.042;8.968;2023-04-24T08:32:21;30.30;41.10
30999;DHT22;20549;50.042;8.968;2023-04-24T08:34:48;29.90;40.40
30999;DHT22;20549;50.042;8.968;2023-04-24T08:37:14;29.30;39.80
30999;DHT22;20549;50.042;8.968;2023-04-24T08:39:41;28.60;39.20
30999;DHT22;20549;50.042;8.968;2023-04-24T08:42:07;27.80;39.60
30999;DHT22;20549;50.042;8.968;2023-04-24T08:44:34;27.10;40.00
30999;DHT22;20549;50.042;8.968;2023-04-24T08:47:03;26.30;40.20
30999;DHT22;20549;50.042;8.968;2023-04-24T08:49:30;25.70;40.60
30999;DHT22;20549;50.042;8.968;2023-04-24T08:51:56;25.20;41.60
30999;DHT22;20549;50.042;8.968;2023-04-24T08:54:23;25.00;43.20
30999;DHT22;20549;50.042;8.968;2023-04-24T08:56:50;25.00;44.30
30999;DHT22;20549;50.042;8.968;2023-04-24T08:59:16;25.10;44.30
30999;DHT22;20549;50.042;8.968;2023-04-24T09:01:43;25.20;43.70
30999;DHT22;20549;50.042;8.968;2023-04-24T09:04:09;25.20;43.00
30999;DHT22;20549;50.042;8.968;2023-04-24T09:06:36;25.00;42.60
30999;DHT22;20549;50.042;8.968;2023-04-24T09:09:03;24.60;42.20
30999;DHT22;20549;50.042;8.968;2023-04-24T09:11:33;24.20;42.30
30999;DHT22;20549;50.042;8.968;2023-04-24T09:13:56;23.80;42.50
30999;DHT22;20549;50.042;8.968;2023-04-24T09:16:22;23.40;42.60
30999;DHT22;20549;50.042;8.968;2023-04-24T09:18:49;22.90;42.80
30999;DHT22;20549;50.042;8.968;2023-04-24T09:21:16;22.40;43.10
30999;DHT22;20549;50.042;8.968;2023-04-24T09:23:42;21.90;43.60
30999;DHT22;20549;50.042;8.968;2023-04-24T09:26:09;21.50;44.00
30999;DHT22;20549;50.042;8.968;2023-04-24T09:28:36;21.10;44.60
30999;DHT22;20549;50.042;8.968;2023-04-24T09:31:15;20.80;45.10
30999;DHT22;20549;50.042;8.968;2023-04-24T09:33:47;20.50;45.50
30999;DHT22;20549;50.042;8.968;2023-04-24T09:36:07;20.20;45.80
30999;DHT22;20549;50.042;8.968;2023-04-24T09:38:37;20.00;46.20
30999;DHT22;20549;50.042;8.968;2023-04-24T09:41:06;19.80;46.80
30999;DHT22;20549;50.042;8.968;2023-04-24T09:43:30;19.60;47.20
30999;DHT22;20549;50.042;8.968;2023-04-24T09:45:57;19.60;47.70
30999;DHT22;20549;50.042;8.968;2023-04-24T09:48:36;19.60;48.00
30999;DHT22;20549;50.042;8.968;2023-04-24T09:50:58;19.60;48.20
30999;DHT22;20549;50.042;8.968;2023-04-24T09:53:25;19.60;48.70
30999;DHT22;20549;50.042;8.968;2023-04-24T09:55:51;19.60;48.10
30999;DHT22;20549;50.042;8.968;2023-04-24T09:58:18;19.60;48.20
30999;DHT22;20549;50.042;8.968;2023-04-24T10:00:44;19.60;48.20
30999;DHT22;20549;50.042;8.968;2023-04-24T10:03:11;19.60;48.20
30999;DHT22;20549;50.042;8.968;2023-04-24T10:05:38;19.60;48.20
30999;DHT22;20549;50.042;8.968;2023-04-24T10:08:07;19.60;48.20
30999;DHT22;20549;50.042;8.968;2023-04-24T10:10:34;19.50;48.30
30999;DHT22;20549;50.042;8.968;2023-04-24T10:13:00;19.50;48.30
30999;DHT22;20549;50.042;8.968;2023-04-24T10:15:26;19.40;48.40
30999;DHT22;20549;50.042;8.968;2023-04-24T10:17:53;19.30;48.40
30999;DHT22;20549;50.042;8.968;2023-04-24T10:20:20;19.20;48.50
30999;DHT22;20549;50.042;8.968;2023-04-24T10:22:49;19.20;48.70
30999;DHT22;20549;50.042;8.968;2023-04-24T10:25:19;19.10;49.00
30999;DHT22;20549;50.042;8.968;2023-04-24T10:27:45;19.20;49.30
30999;DHT22;20549;50.042;8.968;2023-04-24T10:30:12;19.20;49.40
30999;DHT22;20549;50.042;8.968;2023-04-24T10:32:38;19.30;49.60
30999;DHT22;20549;50.042;8.968;2023-04-24T10:35:08;19.40;49.70
30999;DHT22;20549;50.042;8.968;2023-04-24T10:37:35;19.50;49.60
30999;DHT22;20549;50.042;8.968;2023-04-24T10:39:58;19.50;49.50
30999;DHT22;20549;50.042;8.968;2023-04-24T10:42:26;19.60;49.50
30999;DHT22;20549;50.042;8.968;2023-04-24T10:44:51;19.60;49.30
30999;DHT22;20549;50.042;8.968;2023-04-24T10:47:18;19.60;49.00
30999;DHT22;20549;50.042;8.968;2023-04-24T10:49:44;19.50;48.90
30999;DHT22;20549;50.042;8.968;2023-04-24T10:52:11;19.30;48.90
30999;DHT22;20549;50.042;8.968;2023-04-24T10:54:41;19.10;49.10
30999;DHT22;20549;50.042;8.968;2023-04-24T10:59:52;18.70;49.60
30999;DHT22;20549;50.042;8.968;2023-04-24T11:02:18;18.50;49.70
30999;DHT22;20549;50.042;8.968;2023-04-24T11:04:44;18.30;50.00
30999;DHT22;20549;50.042;8.968;2023-04-24T11:07:11;18.10;50.20
30999;DHT22;20549;50.042;8.968;2023-04-24T11:09:37;17.90;50.60
30999;DHT22;20549;50.042;8.968;2023-04-24T11:12:07;17.80;51.00
30999;DHT22;20549;50.042;8.968;2023-04-24T11:17:30;17.70;51.80
30999;DHT22;20549;50.042;8.968;2023-04-24T11:20:03;17.70;52.00
30999;DHT22;20549;50.042;8.968;2023-04-24T11:22:29;17.80;52.50
30999;DHT22;20549;50.042;8.968;2023-04-24T11:24:56;17.90;52.70
30999;DHT22;20549;50.042;8.968;2023-04-24T11:27:22;17.90;52.80
30999;DHT22;20549;50.042;8.968;2023-04-24T11:29:58;17.80;53.30
30999;DHT22;20549;50.042;8.968;2023-04-24T11:34:45;17.60;53.70
30999;DHT22;20549;50.042;8.968;2023-04-24T11:37:11;17.50;54.40
30999;DHT22;20549;50.042;8.968;2023-04-24T11:39:38;17.50;55.20
30999;DHT22;20549;50.042;8.968;2023-04-24T11:42:04;17.50;55.90
30999;DHT22;20549;50.042;8.968;2023-04-24T11:44:31;17.60;56.10
30999;DHT22;20549;50.042;8.968;2023-04-24T11:46:58;17.70;56.30
30999;DHT22;20549;50.042;8.968;2023-04-24T11:49:24;17.80;56.30
30999;DHT22;20549;50.042;8.968;2023-04-24T11:51:54;18.00;56.00
30999;DHT22;20549;50.042;8.968;2023-04-24T11:54:17;18.20;55.90
30999;DHT22;20549;50.042;8.968;2023-04-24T11:56:47;18.40;55.80
30999;DHT22;20549;50.042;8.968;2023-04-24T11:59:13;18.50;55.50
30999;DHT22;20549;50.042;8.968;2023-04-24T12:01:43;18.70;55.30
30999;DHT22;20549;50.042;8.968;2023-04-24T12:04:09;18.90;55.00
30999;DHT22;20549;50.042;8.968;2023-04-24T12:06:36;19.10;54.60
30999;DHT22;20549;50.042;8.968;2023-04-24T12:09:03;19.20;54.30
30999;DHT22;20549;50.042;8.968;2023-04-24T12:11:29;19.30;54.10
30999;DHT22;20549;50.042;8.968;2023-04-24T12:13:56;19.40;53.90
30999;DHT22;20549;50.042;8.968;2023-04-24T12:16:22;19.50;53.60
30999;DHT22;20549;50.042;8.968;2023-04-24T12:18:50;19.50;53.40
30999;DHT22;20549;50.042;8.968;2023-04-24T12:21:19;19.50;53.20
30999;DHT22;20549;50.042;8.968;2023-04-24T12:23:45;19.50;53.10
30999;DHT22;20549;50.042;8.968;2023-04-24T12:26:18;19.60;53.00
30999;DHT22;20549;50.042;8.968;2023-04-24T12:28:46;19.50;52.80
30999;DHT22;20549;50.042;8.968;2023-04-24T12:31:11;19.40;52.70
30999;DHT22;20549;50.042;8.968;2023-04-24T12:33:37;19.30;52.80
30999;DHT22;20549;50.042;8.968;2023-04-24T12:36:04;19.30;53.00
30999;DHT22;20549;50.042;8.968;2023-04-24T12:38:31;19.20;53.20
30999;DHT22;20549;50.042;8.968;2023-04-24T12:41:07;19.20;53.30
30999;DHT22;20549;50.042;8.968;2023-04-24T12:43:33;19.10;53.20
30999;DHT22;20549;50.042;8.968;2023-04-24T12:45:59;19.00;53.10
30999;DHT22;20549;50.042;8.968;2023-04-24T12:48:26;19.00;53.00
30999;DHT22;20549;50.042;8.968;2023-04-24T12:50:52;19.00;53.10
30999;DHT22;20549;50.042;8.968;2023-04-24T12:53:19;18.90;53.30
30999;DHT22;20549;50.042;8.968;2023-04-24T12:55:46;18.90;53.50
30999;DHT22;20549;50.042;8.968;2023-04-24T12:58:12;18.90;53.70
30999;DHT22;20549;50.042;8.968;2023-04-24T13:00:39;18.80;54.20
30999;DHT22;20549;50.042;8.968;2023-04-24T13:03:05;18.80;55.00
30999;DHT22;20549;50.042;8.968;2023-04-24T13:05:32;18.60;54.60
30999;DHT22;20549;50.042;8.968;2023-04-24T13:07:59;18.40;54.70
30999;DHT22;20549;50.042;8.968;2023-04-24T13:10:25;18.10;55.30
30999;DHT22;20549;50.042;8.968;2023-04-24T13:12:52;17.90;55.80
30999;DHT22;20549;50.042;8.968;2023-04-24T13:15:18;17.70;56.30
30999;DHT22;20549;50.042;8.968;2023-04-24T13:17:45;17.60;57.30
30999;DHT22;20549;50.042;8.968;2023-04-24T13:20:11;17.40;57.10
30999;DHT22;20549;50.042;8.968;2023-04-24T13:22:38;17.40;57.30
30999;DHT22;20549;50.042;8.968;2023-04-24T13:25:05;17.30;57.50
30999;DHT22;20549;50.042;8.968;2023-04-24T13:27:31;17.30;57.60
30999;DHT22;20549;50.042;8.968;2023-04-24T13:29:58;17.30;57.70
30999;DHT22;20549;50.042;8.968;2023-04-24T13:32:25;17.40;58.00
30999;DHT22;20549;50.042;8.968;2023-04-24T13:34:51;17.40;58.30
30999;DHT22;20549;50.042;8.968;2023-04-24T13:37:18;17.60;58.50
30999;DHT22;20549;50.042;8.968;2023-04-24T13:39:44;17.70;58.30
30999;DHT22;20549;50.042;8.968;2023-04-24T13:42:11;17.80;57.90
30999;DHT22;20549;50.042;8.968;2023-04-24T13:44:37;17.90;57.70
30999;DHT22;20549;50.042;8.968;2023-04-24T13:47:04;18.10;57.50
30999;DHT22;20549;50.042;8.968;2023-04-24T13:49:31;18.20;57.50
30999;DHT22;20549;50.042;8.968;2023-04-24T13:51:57;18.40;57.30
30999;DHT22;20549;50.042;8.968;2023-04-24T13:54:24;18.50;56.90
30999;DHT22;20549;50.042;8.968;2023-04-24T13:56:51;18.60;56.50
30999;DHT22;20549;50.042;8.968;2023-04-24T13:59:17;18.70;56.20
30999;DHT22;20549;50.042;8.968;2023-04-24T14:01:44;18.80;56.00
30999;DHT22;20549;50.042;8.968;2023-04-24T14:04:10;18.90;56.00
30999;DHT22;20549;50.042;8.968;2023-04-24T14:06:37;18.90;55.70
30999;DHT22;20549;50.042;8.968;2023-04-24T14:09:03;19.00;55.50
30999;DHT22;20549;50.042;8.968;2023-04-24T14:11:30;19.00;55.20
30999;DHT22;20549;50.042;8.968;2023-04-24T14:13:57;19.00;55.30
30999;DHT22;20549;50.042;8.968;2023-04-24T14:16:23;18.90;55.40
30999;DHT22;20549;50.042;8.968;2023-04-24T14:18:50;18.80;55.30
30999;DHT22;20549;50.042;8.968;2023-04-24T14:21:16;18.70;55.30
30999;DHT22;20549;50.042;8.968;2023-04-24T14:23:43;18.60;55.40
30999;DHT22;20549;50.042;8.968;2023-04-24T14:26:10;18.50;55.30
30999;DHT22;20549;50.042;8.968;2023-04-24T14:28:36;18.30;55.30
30999;DHT22;20549;50.042;8.968;2023-04-24T14:31:03;18.30;55.30
30999;DHT22;20549;50.042;8.968;2023-04-24T14:33:29;18.10;55.10
30999;DHT22;20549;50.042;8.968;2023-04-24T14:35:56;18.00;54.90
30999;DHT22;20549;50.042;8.968;2023-04-24T14:38:22;17.90;54.90
30999;DHT22;20549;50.042;8.968;2023-04-24T14:40:49;17.80;55.00
30999;DHT22;20549;50.042;8.968;2023-04-24T14:43:16;17.70;55.10
30999;DHT22;20549;50.042;8.968;2023-04-24T14:45:42;17.70;55.20
30999;DHT22;20549;50.042;8.968;2023-04-24T14:48:09;17.60;55.40
30999;DHT22;20549;50.042;8.968;2023-04-24T14:50:35;17.60;55.60
30999;DHT22;20549;50.042;8.968;2023-04-24T14:53:02;17.60;55.90
30999;DHT22;20549;50.042;8.968;2023-04-24T14:55:29;17.70;56.00
30999;DHT22;20549;50.042;8.968;2023-04-24T14:57:55;17.70;55.90
30999;DHT22;20549;50.042;8.968;2023-04-24T15:00:22;17.80;55.60
30999;DHT22;20549;50.042;8.968;2023-04-24T15:02:48;17.90;55.40
30999;DHT22;20549;50.042;8.968;2023-04-24T15:05:15;17.90;55.10
30999;DHT22;20549;50.042;8.968;2023-04-24T15:07:42;17.90;55.00
30999;DHT22;20549;50.042;8.968;2023-04-24T15:10:08;17.90;54.90
30999;DHT22;20549;50.042;8.968;2023-04-24T15:12:35;17.80;54.90
30999;DHT22;20549;50.042;8.968;2023-04-24T15:15:01;17.90;54.80
30999;DHT22;20549;50.042;8.968;2023-04-24T15:17:28;17.80;54.60
30999;DHT22;20549;50.042;8.968;2023-04-24T15:19:54;17.80;54.70
30999;DHT22;20549;50.042;8.968;2023-04-24T15:22:21;17.80;54.60
30999;DHT22;20549;50.042;8.968;2023-04-24T15:24:48;17.80;54.70
30999;DHT22;20549;50.042;8.968;2023-04-24T15:27:14;17.80;54.70
30999;DHT22;20549;50.042;8.968;2023-04-24T15:29:41;17.80;54.80
30999;DHT22;20549;50.042;8.968;2023-04-24T15:32:07;17.80;54.70
30999;DHT22;20549;50.042;8.968;2023-04-24T15:34:34;17.80;54.60